Time;durP1;ratioP1;P1;durP2;ratioP2;P2;SDS_P1;SDS_P2;PMS_P1;PMS_P2;Temp;Humidity;BMP_temperature;BMP_pressure;BME280_temperature;BME280_humidity;BME280_pressure;Samples;Min_cycle;Max_cycle;Signal;HPM_P1;HPM_P2
2021/08/27 00:00:57;;;;;;;6.67;6.08;;;;;;;23.29;58.14;101120.08;1748280;81;20983;-51
2021/08/27 00:03:24;;;;;;;6.15;5.62;;;;;;;23.28;58.17;101113.08;1743258;81;21049;-50
2021/08/27 00:05:51;;;;;;;6.40;5.83;;;;;;;23.29;58.36;101118.75;1743790;82;21026;-48
2021/08/27 00:08:20;;;;;;;5.97;5.47;;;;;;;23.30;58.51;101123.98;1744322;81;21554;-50
2021/08/27 00:10:48;;;;;;;6.40;5.80;;;;;;;23.31;58.41;101119.49;1742829;81;21078;-50
2021/08/27 00:13:16;;;;;;;6.95;6.30;;;;;;;23.32;58.35;101126.55;1741229;81;21054;-48
2021/08/27 00:15:42;;;;;;;6.70;6.10;;;;;;;23.30;58.30;101131.09;1741456;81;21035;-50
2021/08/27 00:18:09;;;;;;;7.75;5.67;;;;;;;23.30;58.45;101136.39;1741468;81;21471;-51
2021/08/27 00:20:38;;;;;;;6.40;5.80;;;;;;;23.30;58.39;101138.58;1741484;81;20955;-53
2021/08/27 00:23:06;;;;;;;6.17;5.58;;;;;;;23.30;58.52;101141.70;1742815;81;21034;-54
2021/08/27 00:25:33;;;;;;;6.60;6.00;;;;;;;23.30;58.42;101147.02;1744665;81;21089;-51
2021/08/27 00:28:00;;;;;;;7.80;5.90;;;;;;;23.28;58.45;101140.97;1744409;81;21034;-48
2021/08/27 00:30:27;;;;;;;6.42;5.80;;;;;;;23.30;58.45;101141.70;1746544;81;21031;-50
2021/08/27 00:32:54;;;;;;;6.15;5.50;;;;;;;23.28;58.36;101140.97;1733024;81;20968;-51
2021/08/27 00:35:20;;;;;;;7.10;6.03;;;;;;;23.26;58.52;101138.89;1735582;82;21046;-48
2021/08/27 00:37:48;;;;;;;5.95;5.42;;;;;;;23.25;58.40;101140.69;1730926;81;21043;-49
2021/08/27 00:40:14;;;;;;;5.75;5.25;;;;;;;23.23;58.51;101141.73;1733636;81;21059;-49
2021/08/27 00:42:41;;;;;;;6.25;5.35;;;;;;;23.20;58.59;101153.91;1730530;81;21023;-48
2021/08/27 00:45:09;;;;;;;6.10;5.55;;;;;;;23.18;58.75;101155.82;1677404;84;21018;-51
2021/08/27 00:47:35;;;;;;;5.85;5.35;;;;;;;23.16;58.63;101160.38;1700587;84;21050;-51
2021/08/27 00:50:04;;;;;;;5.45;4.95;;;;;;;23.13;58.70;101167.22;1701756;84;21021;-51
2021/08/27 00:52:32;;;;;;;6.00;5.50;;;;;;;23.14;58.96;101163.63;1701219;84;21061;-49
2021/08/27 00:55:00;;;;;;;5.72;5.22;;;;;;;23.17;59.11;101174.02;1750334;80;21049;-48
2021/08/27 00:57:27;;;;;;;5.95;5.45;;;;;;;23.19;58.96;101173.44;1733656;81;21039;-52
2021/08/27 00:59:53;;;;;;;6.17;5.12;;;;;;;23.19;58.94;101165.47;1733275;81;21479;-51
2021/08/27 01:02:20;;;;;;;5.90;5.40;;;;;;;23.18;58.86;101159.80;1733912;81;21007;-50
2021/08/27 01:04:47;;;;;;;5.08;4.65;;;;;;;23.17;58.85;101159.41;1733546;81;20975;-48
2021/08/27 01:07:24;;;;;;;5.58;5.08;;;;;;;23.13;58.85;101151.28;1734045;81;21042;-50
2021/08/27 01:10:21;;;;;;;8.35;5.47;;;;;;;23.10;58.79;101147.53;1741383;81;20964;-50
2021/08/27 01:13:13;;;;;;;5.17;4.67;;;;;;;23.05;58.92;101152.28;1697687;84;21081;-49
2021/08/27 01:15:53;;;;;;;5.08;4.60;;;;;;;23.04;58.99;101142.63;1696362;84;21027;-50
2021/08/27 01:18:31;;;;;;;6.28;5.40;;;;;;;22.98;59.08;101136.41;1696180;84;21042;-50
2021/08/27 01:21:43;;;;;;;5.55;5.05;;;;;;;22.96;59.53;101134.30;1697238;84;21030;-51
2021/08/27 01:24:10;;;;;;;6.03;4.50;;;;;;;22.96;59.69;101142.27;1687479;84;21609;-50
2021/08/27 01:26:48;;;;;;;7.53;4.60;;;;;;;22.99;59.81;101141.61;1700239;84;21027;-48
2021/08/27 01:29:49;;;;;;;5.22;4.83;;;;;;;23.03;59.55;101146.22;1693289;84;21113;-50
2021/08/27 01:32:24;;;;;;;5.15;4.72;;;;;;;23.02;59.30;101147.19;1681040;84;21624;-53
2021/08/27 01:34:50;;;;;;;5.90;4.62;;;;;;;23.01;59.31;101148.13;1636149;87;21090;-48
2021/08/27 01:37:21;;;;;;;5.70;4.80;;;;;;;22.99;59.24;101151.36;1629305;87;21063;-51
2021/08/27 01:39:53;;;;;;;6.28;4.42;;;;;;;22.99;59.39;101148.24;1635941;87;21051;-49
2021/08/27 01:42:23;;;;;;;5.17;4.78;;;;;;;23.05;59.55;101146.97;1617968;88;21668;-50
2021/08/27 01:44:51;;;;;;;5.22;4.72;;;;;;;23.11;59.52;101154.05;1587611;90;21062;-51
2021/08/27 01:47:21;;;;;;;5.80;5.28;;;;;;;23.18;59.28;101150.52;1590933;89;21038;-51
2021/08/27 01:49:48;;;;;;;8.73;5.30;;;;;;;23.24;59.29;101152.75;1595495;89;21111;-51
2021/08/27 01:52:14;;;;;;;6.97;5.28;;;;;;;23.30;59.06;101158.97;1603460;88;21072;-48
2021/08/27 01:54:42;;;;;;;5.65;4.85;;;;;;;23.34;58.94;101151.20;1620993;87;21063;-52
2021/08/27 01:57:09;;;;;;;5.15;4.65;;;;;;;23.38;58.90;101156.67;1630074;86;21012;-49
2021/08/27 01:59:39;;;;;;;5.50;4.60;;;;;;;23.40;58.81;101154.76;1608922;87;21051;-49
2021/08/27 02:02:07;;;;;;;6.17;5.03;;;;;;;23.42;58.72;101151.52;1604622;87;21582;-48
2021/08/27 02:04:36;;;;;;;5.17;4.72;;;;;;;23.42;58.60;101149.72;1609184;87;21121;-50
2021/08/27 02:07:05;;;;;;;5.10;4.70;;;;;;;23.44;58.58;101149.61;1625268;86;21101;-51
2021/08/27 02:09:33;;;;;;;5.00;4.60;;;;;;;23.43;58.28;101150.58;1631872;86;21621;-55
2021/08/27 02:12:00;;;;;;;5.72;4.47;;;;;;;23.38;58.34;101148.23;1632222;87;20998;-47
2021/08/27 02:14:27;;;;;;;7.75;4.78;;;;;;;23.34;58.29;101151.20;1633034;86;21031;-50
2021/08/27 02:16:54;;;;;;;5.37;4.87;;;;;;;23.29;58.42;101150.61;1633072;86;21029;-50
2021/08/27 02:19:21;;;;;;;8.50;4.97;;;;;;;23.26;58.67;101150.84;1631113;86;21058;-52
2021/08/27 02:21:52;;;;;;;7.62;5.00;;;;;;;23.25;58.94;101153.10;1621822;87;21069;-50
2021/08/27 02:24:23;;;;;;;4.90;4.50;;;;;;;23.27;58.93;101156.50;1622875;87;21053;-47
2021/08/27 02:26:50;;;;;;;5.60;5.10;;;;;;;23.31;58.95;101159.33;1630771;86;21062;-49
2021/08/27 02:29:18;;;;;;;5.50;5.00;;;;;;;23.32;58.88;101155.30;1630144;86;21533;-47
2021/08/27 02:31:49;;;;;;;4.72;4.33;;;;;;;23.29;58.50;101150.14;1645272;84;21117;-49
2021/08/27 02:34:17;;;;;;;5.00;4.60;;;;;;;23.21;58.06;101152.47;1649077;85;21002;-49
2021/08/27 02:36:45;;;;;;;5.33;4.87;;;;;;;23.14;58.25;101151.67;1652660;86;21010;-49
2021/08/27 02:39:14;;;;;;;5.28;4.83;;;;;;;23.08;58.61;101154.74;1681260;83;21028;-49
2021/08/27 02:41:40;;;;;;;8.10;5.20;;;;;;;23.03;59.09;101159.49;1701734;83;21038;-49
2021/08/27 02:44:08;;;;;;;5.72;5.00;;;;;;;23.00;59.38;101157.06;1703055;84;21040;-50
2021/08/27 02:46:35;;;;;;;5.17;4.67;;;;;;;22.98;59.31;101153.66;1698410;83;21035;-50
2021/08/27 02:49:01;;;;;;;6.03;4.70;;;;;;;22.97;59.25;101158.58;1700274;83;21063;-48
2021/08/27 02:51:34;;;;;;;5.53;4.85;;;;;;;22.92;59.19;101154.90;1701241;83;21095;-48
2021/08/27 02:54:03;;;;;;;5.30;4.80;;;;;;;22.87;59.44;101150.86;1700579;83;21026;-48
2021/08/27 02:56:33;;;;;;;6.35;4.78;;;;;;;22.82;59.67;101148.97;1702726;83;21539;-48
2021/08/27 02:59:00;;;;;;;5.05;4.60;;;;;;;22.78;59.74;101147.47;1677847;84;21019;-49
2021/08/27 03:01:36;;;;;;;5.58;5.05;;;;;;;22.72;59.72;101157.16;1703872;83;21070;-48
2021/08/27 03:04:14;;;;;;;5.30;4.78;;;;;;;22.71;59.94;101155.48;1703552;83;21058;-50
2021/08/27 03:07:05;;;;;;;5.55;5.15;;;;;;;22.69;60.24;101149.42;1674554;84;21546;-47
2021/08/27 03:09:25;;;;;;;5.55;4.97;;;;;;;22.67;60.31;101153.98;1651058;85;22193;-49
2021/08/27 03:11:55;;;;;;;5.85;5.30;;;;;;;22.65;60.42;101158.03;1649063;85;21082;-50
2021/08/27 03:14:32;;;;;;;5.58;5.03;;;;;;;22.65;60.52;101152.27;1665486;85;21556;-50
2021/08/27 03:17:02;;;;;;;5.83;5.33;;;;;;;22.66;60.59;101158.42;1660383;85;21022;-51
2021/08/27 03:19:50;;;;;;;6.00;5.53;;;;;;;22.66;60.44;101163.73;1660004;86;21042;-49
2021/08/27 03:22:25;;;;;;;6.75;5.87;;;;;;;22.65;60.32;101162.87;1659543;86;20979;-51
2021/08/27 03:25:04;;;;;;;6.05;5.55;;;;;;;22.64;60.36;101156.34;1632787;86;21042;-51
2021/08/27 03:27:35;;;;;;;6.85;6.15;;;;;;;22.66;60.43;101159.75;1660453;86;21046;-49
2021/08/27 03:30:07;;;;;;;6.97;6.10;;;;;;;22.64;60.41;101151.91;1660353;85;21050;-51
2021/08/27 03:32:33;;;;;;;6.30;5.75;;;;;;;22.63;60.69;101152.84;1644115;85;21147;-49
2021/08/27 03:34:59;;;;;;;7.03;6.42;;;;;;;22.61;60.73;101148.11;1651794;86;21545;-47
2021/08/27 03:37:26;;;;;;;7.37;6.67;;;;;;;22.59;60.59;101155.31;1639080;86;21037;-47
2021/08/27 03:39:53;;;;;;;7.00;6.40;;;;;;;22.56;60.68;101162.13;1645293;86;21056;-50
2021/08/27 03:42:22;;;;;;;7.95;7.15;;;;;;;22.56;61.04;101166.58;1621389;88;21125;-51
2021/08/27 03:44:49;;;;;;;7.72;7.03;;;;;;;22.54;60.94;101162.70;1640214;86;21110;-48
2021/08/27 03:47:15;;;;;;;7.55;6.85;;;;;;;22.54;61.02;101171.99;1645033;86;21012;-48
2021/08/27 03:49:43;;;;;;;7.83;7.03;;;;;;;22.55;60.99;101172.34;1646189;86;21074;-48
2021/08/27 03:52:11;;;;;;;7.92;7.15;;;;;;;22.57;61.03;101171.77;1648421;86;21121;-47
2021/08/27 03:54:37;;;;;;;8.00;7.22;;;;;;;22.59;60.74;101179.19;1648134;86;21572;-48
2021/08/27 03:57:06;;;;;;;8.05;7.33;;;;;;;22.59;60.51;101172.56;1624100;86;21554;-48
2021/08/27 03:59:32;;;;;;;8.90;8.10;;;;;;;22.59;60.58;101170.38;1646101;86;21001;-50
2021/08/27 04:01:59;;;;;;;9.13;8.23;;;;;;;22.59;60.57;101179.19;1647303;86;21024;-50
2021/08/27 04:04:25;;;;;;;8.93;8.03;;;;;;;22.59;60.84;101184.49;1667084;85;20999;-49
2021/08/27 04:07:01;;;;;;;9.10;8.30;;;;;;;22.62;60.85;101192.27;1668384;85;21022;-49
2021/08/27 04:09:30;;;;;;;9.10;8.30;;;;;;;22.66;60.81;101194.23;1672116;85;21077;-49
2021/08/27 04:11:57;;;;;;;9.53;8.58;;;;;;;22.71;60.54;101204.56;1674528;85;21066;-50
2021/08/27 04:14:25;;;;;;;9.00;8.10;;;;;;;22.74;60.51;101206.53;1710831;83;21037;-49
2021/08/27 04:16:53;;;;;;;8.30;7.58;;;;;;;22.81;60.40;101199.03;1723975;82;21037;-50
2021/08/27 04:19:20;;;;;;;8.65;7.78;;;;;;;22.88;60.28;101195.00;1724162;82;21033;-48
2021/08/27 04:21:46;;;;;;;9.25;8.35;;;;;;;22.95;60.21;101204.27;1724376;82;21466;-50
2021/08/27 04:24:12;;;;;;;9.65;8.75;;;;;;;23.01;59.88;101206.52;1724228;82;21010;-53
2021/08/27 04:26:40;;;;;;;8.88;8.08;;;;;;;23.05;59.78;101205.36;1724163;82;21069;-48
2021/08/27 04:29:11;;;;;;;9.03;8.23;;;;;;;23.08;59.60;101207.83;1724182;82;21005;-49
2021/08/27 04:31:38;;;;;;;8.63;7.83;;;;;;;23.12;59.49;101211.98;1726778;81;21082;-49
2021/08/27 04:34:04;;;;;;;9.28;8.35;;;;;;;23.18;59.34;101214.23;1734250;81;20999;-50
2021/08/27 04:36:31;;;;;;;9.68;8.15;;;;;;;23.22;59.01;101215.72;1735568;82;21026;-53
2021/08/27 04:38:58;;;;;;;9.83;9.03;;;;;;;23.25;58.78;101208.86;1730670;81;21086;-49
2021/08/27 04:41:25;;;;;;;10.75;9.55;;;;;;;23.27;58.59;101205.63;1727229;81;21511;-49
2021/08/27 04:43:52;;;;;;;12.80;10.78;;;;;;;23.26;58.43;101205.27;1734566;81;21042;-51
2021/08/27 04:46:19;;;;;;;11.50;10.40;;;;;;;23.25;58.50;101208.86;1735584;82;21027;-50
2021/08/27 04:48:46;;;;;;;11.35;10.28;;;;;;;23.24;58.41;101204.05;1736540;82;21027;-48
2021/08/27 04:51:13;;;;;;;11.03;9.88;;;;;;;23.21;58.56;101202.92;1736626;81;21476;-50
2021/08/27 04:53:40;;;;;;;10.53;9.43;;;;;;;23.21;58.58;101204.72;1734604;81;20995;-48
2021/08/27 04:56:07;;;;;;;12.00;10.90;;;;;;;23.18;58.22;101201.81;1732927;81;21558;-52
2021/08/27 04:58:33;;;;;;;12.07;10.90;;;;;;;23.17;58.23;101201.89;1733576;81;21003;-51
2021/08/27 05:01:01;;;;;;;11.45;10.45;;;;;;;23.17;58.18;101201.89;1733669;81;21066;-49
2021/08/27 05:03:28;;;;;;;11.97;10.35;;;;;;;23.17;58.32;101200.56;1733556;81;20996;-49
2021/08/27 05:05:55;;;;;;;11.12;10.03;;;;;;;23.18;57.92;101203.14;1731059;82;21051;-51
2021/08/27 05:08:22;;;;;;;11.45;10.25;;;;;;;23.19;57.76;101207.95;1736385;81;21023;-47
2021/08/27 05:10:49;;;;;;;11.15;9.78;;;;;;;23.20;57.86;101210.99;1723245;81;20999;-52
2021/08/27 05:13:16;;;;;;;10.05;9.15;;;;;;;23.22;57.81;101210.41;1736650;81;20995;-49
2021/08/27 05:15:42;;;;;;;10.68;9.78;;;;;;;23.23;57.84;101216.94;1732353;82;20965;-49
2021/08/27 05:18:08;;;;;;;10.72;9.73;;;;;;;23.25;57.79;101215.50;1726806;81;21002;-48
2021/08/27 05:20:35;;;;;;;9.68;8.78;;;;;;;23.27;58.01;101218.91;1733629;81;21101;-48
2021/08/27 05:23:02;;;;;;;10.30;9.33;;;;;;;23.29;57.97;101217.00;1735534;81;20987;-51
2021/08/27 05:25:30;;;;;;;9.38;8.58;;;;;;;23.31;58.23;101218.60;1736562;81;21066;-47
2021/08/27 05:27:56;;;;;;;11.40;8.90;;;;;;;23.34;58.40;101212.27;1735598;81;21030;-49
2021/08/27 05:30:23;;;;;;;9.68;8.73;;;;;;;23.38;58.47;101216.42;1734185;81;21031;-49
2021/08/27 05:32:50;;;;;;;9.85;8.93;;;;;;;23.42;58.55;101220.58;1741738;80;21037;-51
2021/08/27 05:35:16;;;;;;;10.05;9.05;;;;;;;23.45;58.73;101221.20;1745079;81;21022;-48
2021/08/27 05:37:43;;;;;;;10.35;8.98;;;;;;;23.50;58.85;101220.91;1753852;80;21074;-50
2021/08/27 05:40:11;;;;;;;10.60;9.55;;;;;;;23.56;58.79;101223.14;1756699;80;21002;-51
2021/08/27 05:42:39;;;;;;;10.78;8.70;;;;;;;23.61;58.79;101228.14;1749723;80;21498;-50
2021/08/27 05:45:07;;;;;;;11.38;8.73;;;;;;;23.65;58.89;101234.48;1745383;81;21018;-48
2021/08/27 05:47:33;;;;;;;9.65;8.75;;;;;;;23.70;58.81;101232.34;1738309;80;21515;-49
2021/08/27 05:50:00;;;;;;;10.38;8.60;;;;;;;23.75;58.53;101228.91;1747879;80;21010;-49
2021/08/27 05:52:26;;;;;;;9.48;8.10;;;;;;;23.78;58.42;101231.34;1749739;80;20994;-46
2021/08/27 05:54:54;;;;;;;11.10;8.13;;;;;;;23.82;58.36;101232.00;1749738;80;21510;-51
2021/08/27 05:57:20;;;;;;;12.73;8.15;;;;;;;23.86;58.51;101230.36;1745397;81;21042;-48
2021/08/27 05:59:47;;;;;;;9.00;8.20;;;;;;;23.93;58.38;101235.59;1740379;80;21022;-50
2021/08/27 06:02:14;;;;;;;9.28;8.40;;;;;;;24.02;58.46;101232.31;1749037;80;21494;-48
2021/08/27 06:04:40;;;;;;;11.48;9.68;;;;;;;24.14;58.68;101230.63;1751882;80;21003;-48
2021/08/27 06:07:07;;;;;;;10.30;9.15;;;;;;;24.28;58.37;101227.00;1752939;80;21002;-49
2021/08/27 06:09:35;;;;;;;10.40;8.95;;;;;;;24.42;58.10;101224.20;1752406;81;21074;-51
2021/08/27 06:12:02;;;;;;;9.65;8.75;;;;;;;24.53;57.65;101221.60;1750734;80;20994;-49
2021/08/27 06:14:28;;;;;;;9.70;8.75;;;;;;;24.64;57.54;101227.01;1750674;80;21010;-50
2021/08/27 06:16:55;;;;;;;12.20;9.45;;;;;;;24.74;57.38;101218.75;1752272;80;21022;-49
2021/08/27 06:19:22;;;;;;;9.98;9.05;;;;;;;24.82;57.11;101211.05;1756511;80;21282;-49
2021/08/27 06:21:49;;;;;;;10.23;8.93;;;;;;;24.89;56.90;101215.80;1760103;80;20998;-50
2021/08/27 06:24:15;;;;;;;10.38;9.03;;;;;;;24.98;56.86;101220.94;1747656;80;21045;-48
2021/08/27 06:26:42;;;;;;;11.50;9.40;;;;;;;25.06;56.69;101220.38;1749147;80;21514;-48
2021/08/27 06:29:09;;;;;;;11.65;10.28;;;;;;;25.11;56.70;101227.06;1754271;81;21474;-50
2021/08/27 06:31:36;;;;;;;12.78;10.80;;;;;;;25.16;56.79;101228.91;1756102;79;20987;-50
2021/08/27 06:34:05;;;;;;;11.55;10.13;;;;;;;25.22;57.00;101224.45;1754488;81;21050;-48
2021/08/27 06:36:31;;;;;;;10.40;9.18;;;;;;;25.37;56.49;101235.27;1757742;81;21010;-51
2021/08/27 06:38:58;;;;;;;11.70;10.50;;;;;;;25.39;56.17;101237.33;1752191;81;20979;-49
2021/08/27 06:41:25;;;;;;;11.20;9.63;;;;;;;25.43;56.26;101244.66;1758126;81;20994;-49
2021/08/27 06:43:52;;;;;;;13.05;10.35;;;;;;;25.47;56.32;101245.62;1754776;81;21014;-48
2021/08/27 06:46:23;;;;;;;9.83;8.80;;;;;;;25.51;56.26;101252.41;1755969;81;21050;-50
2021/08/27 06:48:51;;;;;;;11.70;8.55;;;;;;;25.55;56.34;101251.24;1755016;80;20991;-47
2021/08/27 06:51:18;;;;;;;8.90;8.13;;;;;;;25.60;56.14;101254.39;1750287;81;21061;-50
2021/08/27 06:53:45;;;;;;;9.48;8.58;;;;;;;25.63;55.97;101251.50;1758957;81;21468;-46
2021/08/27 06:56:12;;;;;;;10.00;8.23;;;;;;;25.66;55.97;101249.92;1760218;81;21061;-50
2021/08/27 06:58:40;;;;;;;11.75;8.78;;;;;;;25.69;56.18;101248.37;1757476;81;21050;-50
2021/08/27 07:01:07;;;;;;;9.95;8.70;;;;;;;25.72;56.11;101257.44;1746019;81;21081;-49
2021/08/27 07:03:34;;;;;;;9.58;8.68;;;;;;;25.71;56.04;101254.43;1703576;84;21022;-49
2021/08/27 07:06:01;;;;;;;10.25;9.13;;;;;;;25.72;56.17;101252.59;1692877;84;20975;-48
2021/08/27 07:08:28;;;;;;;10.68;8.93;;;;;;;25.71;56.23;101260.23;1705478;82;21047;-50
2021/08/27 07:10:55;;;;;;;9.03;8.13;;;;;;;25.72;56.29;101265.92;1709188;83;21648;-51
2021/08/27 07:13:22;;;;;;;10.50;7.83;;;;;;;25.74;56.04;101261.31;1703885;82;21011;-48
2021/08/27 07:15:51;;;;;;;8.05;7.00;;;;;;;25.74;55.28;101259.51;1709689;83;21054;-48
2021/08/27 07:18:17;;;;;;;13.22;8.03;;;;;;;25.73;54.35;101248.50;1752100;81;20963;-50
2021/08/27 07:20:44;;;;;;;8.68;7.65;;;;;;;25.72;53.90;101248.11;1753766;81;21051;-49
2021/08/27 07:23:13;;;;;;;9.08;7.22;;;;;;;25.75;54.25;101257.70;1755773;81;21479;-47
2021/08/27 07:25:41;;;;;;;8.13;7.22;;;;;;;25.75;54.52;101258.55;1755114;81;21565;-50
2021/08/27 07:28:09;;;;;;;11.38;8.18;;;;;;;25.78;54.44;101260.97;1754070;81;21041;-49
2021/08/27 07:30:36;;;;;;;8.53;7.72;;;;;;;25.80;54.64;101258.20;1709841;84;21545;-52
2021/08/27 07:33:04;;;;;;;8.08;7.35;;;;;;;25.82;54.14;101258.43;1706736;84;21007;-48
2021/08/27 07:35:30;;;;;;;7.85;7.12;;;;;;;25.82;53.66;101261.61;1705186;83;21109;-49
2021/08/27 07:37:57;;;;;;;7.25;6.60;;;;;;;25.81;53.34;101252.75;1720731;83;21094;-50
2021/08/27 07:40:25;;;;;;;8.50;7.70;;;;;;;25.81;52.87;101257.23;1708143;84;21003;-49
2021/08/27 07:42:52;;;;;;;7.95;7.25;;;;;;;25.79;53.42;101260.02;1718719;82;20968;-49
2021/08/27 07:45:18;;;;;;;10.03;8.15;;;;;;;25.81;53.86;101263.41;1709412;83;21077;-48
2021/08/27 07:47:45;;;;;;;9.35;7.55;;;;;;;25.84;53.92;101257.83;1708488;82;20983;-48
2021/08/27 07:50:13;;;;;;;7.45;6.75;;;;;;;25.89;53.61;101259.29;1725298;82;21006;-50
2021/08/27 07:52:40;;;;;;;14.87;8.50;;;;;;;25.91;53.21;101262.69;1720255;83;20950;-49
2021/08/27 07:55:08;;;;;;;7.97;6.95;;;;;;;25.92;52.86;101260.40;1715636;82;20978;-50
2021/08/27 07:57:40;;;;;;;8.35;7.62;;;;;;;25.95;52.78;101266.81;1714050;82;21009;-52
2021/08/27 08:00:09;;;;;;;8.63;7.87;;;;;;;25.99;52.95;101265.63;1756643;81;20979;-48
2021/08/27 08:02:36;;;;;;;9.35;8.45;;;;;;;26.02;53.10;101258.71;1755520;81;21463;-47
2021/08/27 08:05:03;;;;;;;7.67;6.80;;;;;;;26.05;53.20;101259.82;1762297;81;20967;-48
2021/08/27 08:07:30;;;;;;;10.48;7.67;;;;;;;26.04;52.64;101253.63;1756230;81;21042;-49
2021/08/27 08:09:57;;;;;;;15.25;8.20;;;;;;;26.03;52.81;101261.77;1756818;81;20978;-48
2021/08/27 08:12:25;;;;;;;9.23;7.60;;;;;;;26.02;52.74;101268.91;1758752;81;21403;-50
2021/08/27 08:14:52;;;;;;;8.43;7.62;;;;;;;26.01;52.38;101265.03;1760230;81;20956;-50
2021/08/27 08:17:18;;;;;;;8.15;7.30;;;;;;;26.00;52.27;101265.98;1761631;81;20968;-51
2021/08/27 08:19:45;;;;;;;7.80;7.10;;;;;;;25.99;52.02;101273.64;1761259;81;21062;-49
2021/08/27 08:22:12;;;;;;;8.80;7.17;;;;;;;26.01;52.28;101272.52;1762038;81;20979;-49
2021/08/27 08:24:39;;;;;;;12.13;7.08;;;;;;;26.04;52.06;101279.44;1758913;80;21655;-48
2021/08/27 08:27:06;;;;;;;11.85;7.70;;;;;;;26.06;52.21;101276.17;1751806;81;21502;-47
2021/08/27 08:29:33;;;;;;;9.48;7.45;;;;;;;26.07;52.14;101272.08;1751377;81;21046;-48
2021/08/27 08:32:00;;;;;;;9.33;8.43;;;;;;;26.07;52.03;101269.41;1715592;83;20994;-49
2021/08/27 08:34:27;;;;;;;9.88;8.50;;;;;;;26.08;52.01;101270.27;1698302;83;21028;-49
2021/08/27 08:36:54;;;;;;;10.70;9.63;;;;;;;26.07;52.17;101268.08;1703744;83;21074;-50
2021/08/27 08:39:21;;;;;;;10.08;9.05;;;;;;;26.06;52.47;101273.03;1704632;83;20987;-48
2021/08/27 08:41:48;;;;;;;12.18;9.35;;;;;;;26.09;53.09;101266.64;1713397;83;20983;-49
2021/08/27 08:44:16;;;;;;;10.50;9.40;;;;;;;26.11;52.96;101271.37;1716569;82;21022;-50
2021/08/27 08:46:45;;;;;;;13.00;10.08;;;;;;;26.14;53.21;101277.78;1713659;83;21569;-49
2021/08/27 08:49:13;;;;;;;11.48;10.28;;;;;;;26.17;52.35;101278.39;1719218;83;21459;-52
2021/08/27 08:51:44;;;;;;;11.48;10.25;;;;;;;26.19;52.03;101264.47;1717406;82;21027;-50
2021/08/27 08:54:13;;;;;;;11.73;10.15;;;;;;;26.25;51.82;101266.66;1707476;82;21483;-50
2021/08/27 08:56:42;;;;;;;16.07;14.47;;;;;;;26.25;51.82;101266.66;1716562;82;21030;-48
2021/08/27 08:59:14;;;;;;;13.95;12.43;;;;;;;26.25;52.21;101256.46;1738543;81;21511;-48
2021/08/27 09:01:42;;;;;;;14.33;12.65;;;;;;;26.25;52.34;101259.98;1752112;81;21035;-50
2021/08/27 09:04:09;;;;;;;15.88;13.08;;;;;;;26.25;51.92;101260.47;1744380;81;20995;-48
2021/08/27 09:06:37;;;;;;;17.05;15.18;;;;;;;26.22;52.27;101255.36;1746062;81;21015;-48
2021/08/27 09:09:04;;;;;;;18.05;15.00;;;;;;;26.20;52.54;101261.30;1751701;81;20995;-48
2021/08/27 09:11:31;;;;;;;16.50;14.90;;;;;;;26.19;52.67;101262.28;1737818;81;21471;-50
2021/08/27 09:14:00;;;;;;;17.50;15.43;;;;;;;26.15;52.70;101254.16;1746217;81;21042;-50
2021/08/27 09:16:34;;;;;;;19.87;16.40;;;;;;;26.13;52.77;101250.77;1750807;81;21546;-49
2021/08/27 09:19:00;;;;;;;17.02;14.73;;;;;;;26.10;53.39;101245.66;1751810;81;20963;-47
2021/08/27 09:21:38;;;;;;;18.90;16.42;;;;;;;26.10;53.60;101247.84;1754384;81;20996;-49
2021/08/27 09:24:22;;;;;;;19.92;17.37;;;;;;;26.11;53.37;101250.03;1760164;81;20983;-50
2021/08/27 09:27:01;;;;;;;18.23;16.37;;;;;;;26.14;53.21;101243.11;1744650;81;20967;-49
2021/08/27 09:29:38;;;;;;;20.20;17.15;;;;;;;26.21;53.17;101253.20;1739701;81;21006;-49
2021/08/27 09:32:27;;;;;;;27.05;18.98;;;;;;;26.27;52.83;101247.85;1732896;81;21558;-49
2021/08/27 09:35:10;;;;;;;20.70;18.52;;;;;;;26.34;52.64;101251.72;1734426;81;21078;-48
2021/08/27 09:37:45;;;;;;;22.67;20.02;;;;;;;26.45;52.51;101241.05;1734141;81;20991;-50
2021/08/27 09:40:23;;;;;;;23.77;18.87;;;;;;;26.45;52.51;101241.05;1734513;81;21000;-48
2021/08/27 09:42:50;;;;;;;21.73;19.50;;;;;;;26.52;52.75;101230.25;1752812;81;20999;-50
2021/08/27 09:45:19;;;;;;;23.18;20.68;;;;;;;26.59;52.78;101236.30;1737810;82;21018;-51
2021/08/27 09:50:39;;;;;;;24.60;20.15;;;;;;;26.73;52.64;101244.55;1750574;82;20994;-50
2021/08/27 09:53:10;;;;;;;23.12;20.70;;;;;;;26.80;52.69;101240.41;1737514;82;20974;-50
2021/08/27 09:55:38;;;;;;;22.55;19.52;;;;;;;26.86;52.68;101235.91;1733773;82;21039;-51
2021/08/27 09:58:10;;;;;;;22.13;19.50;;;;;;;26.92;52.48;101238.55;1732953;82;21617;-49
2021/08/27 10:00:47;;;;;;;18.23;16.30;;;;;;;26.99;52.25;101245.95;1666788;86;20995;-50
2021/08/27 10:03:25;;;;;;;20.68;17.12;;;;;;;27.03;52.04;101246.53;1675903;84;21034;-50
2021/08/27 10:08:27;;;;;;;16.80;15.15;;;;;;;27.08;51.93;101252.36;1621473;88;21585;-48
2021/08/27 10:11:00;;;;;;;15.98;14.20;;;;;;;27.12;51.45;101251.13;1626609;88;21583;-49
2021/08/27 10:13:26;;;;;;;15.30;13.72;;;;;;;27.16;51.43;101261.41;1624980;88;21053;-50
2021/08/27 10:15:53;;;;;;;14.83;13.53;;;;;;;27.18;51.48;101248.77;1626441;88;21110;-52
2021/08/27 10:18:20;;;;;;;13.78;12.58;;;;;;;27.25;51.16;101245.97;1621716;86;21125;-49
2021/08/27 10:20:48;;;;;;;13.05;11.83;;;;;;;27.32;51.09;101243.16;1628671;88;21109;-50
2021/08/27 10:23:17;;;;;;;13.85;12.45;;;;;;;27.36;50.90;101235.75;1618870;88;21015;-51
2021/08/27 10:25:45;;;;;;;17.60;12.95;;;;;;;27.43;50.76;101232.08;1623140;88;20998;-50
2021/08/27 10:28:13;;;;;;;15.00;13.43;;;;;;;27.50;50.59;101238.58;1627792;88;21031;-50
2021/08/27 10:30:59;;;;;;;14.35;13.00;;;;;;;27.57;50.35;101232.61;1629818;86;21593;-50
2021/08/27 10:33:43;;;;;;;15.05;13.65;;;;;;;27.62;50.55;101229.03;1620433;88;21081;-50
2021/08/27 10:36:30;;;;;;;14.90;13.40;;;;;;;27.69;50.26;101242.73;1627269;88;21121;-50
2021/08/27 10:38:59;;;;;;;19.20;13.72;;;;;;;27.74;49.89;101245.88;1628014;88;21519;-49
2021/08/27 10:41:37;;;;;;;16.57;14.87;;;;;;;27.78;49.84;101250.80;1626332;88;21522;-50
2021/08/27 10:44:08;;;;;;;13.93;12.53;;;;;;;27.80;49.62;101238.66;1625855;88;21610;-49
2021/08/27 10:46:50;;;;;;;14.65;13.22;;;;;;;27.83;49.61;101241.06;1622319;88;21110;-48
2021/08/27 10:49:24;;;;;;;15.32;13.08;;;;;;;27.83;48.57;101242.39;1570569;89;21080;-48
2021/08/27 10:51:53;;;;;;;13.98;12.58;;;;;;;27.81;48.83;101243.02;1578400;90;21087;-49
2021/08/27 10:54:19;;;;;;;15.50;12.65;;;;;;;27.81;48.74;101245.69;1572226;90;21104;-49
2021/08/27 10:56:53;;;;;;;14.23;12.80;;;;;;;27.79;48.45;101241.82;1597898;86;21022;-49
2021/08/27 10:59:28;;;;;;;14.13;12.68;;;;;;;27.77;48.44;101242.92;1656452;85;21015;-50
2021/08/27 11:02:01;;;;;;;14.65;13.25;;;;;;;27.76;48.50;101238.57;1566942;89;21107;-49
2021/08/27 11:04:28;;;;;;;15.13;13.62;;;;;;;27.76;48.63;101233.22;1589154;86;21537;-49
2021/08/27 11:07:06;;;;;;;15.48;14.05;;;;;;;27.75;48.64;101239.53;1635530;86;21537;-49
2021/08/27 11:09:35;;;;;;;14.93;13.22;;;;;;;27.72;48.84;101242.48;1629144;88;21049;-49
2021/08/27 11:12:16;;;;;;;15.60;13.50;;;;;;;27.70;48.84;101248.45;1634223;86;21006;-50
2021/08/27 11:14:44;;;;;;;17.75;14.58;;;;;;;27.70;49.35;101240.44;1635755;86;21013;-48
2021/08/27 11:17:12;;;;;;;15.90;14.18;;;;;;;27.71;49.19;101230.08;1635551;86;21106;-51
2021/08/27 11:19:42;;;;;;;15.75;14.23;;;;;;;27.70;48.91;101227.89;1635011;86;21105;-49
2021/08/27 11:22:22;;;;;;;14.93;13.53;;;;;;;27.72;48.76;101225.11;1633644;86;21006;-51
2021/08/27 11:28:02;;;;;;;14.25;12.93;;;;;;;27.73;48.61;101229.46;1567473;90;21518;-50
2021/08/27 11:30:32;;;;;;;14.30;13.00;;;;;;;27.72;49.04;101237.14;1571256;90;21585;-47
2021/08/27 11:33:01;;;;;;;16.55;14.95;;;;;;;27.73;49.51;101244.17;1568045;90;21191;-46
2021/08/27 11:35:29;;;;;;;15.72;14.43;;;;;;;27.73;49.99;101249.52;1568490;91;21644;-49
2021/08/27 11:37:58;;;;;;;15.48;13.98;;;;;;;27.71;50.12;101250.99;1568959;91;21561;-50